^^
Saratoga-Weather Station Historical Data
Daily Summary for June 15, 2020 Units:  Both    English   Metric
Daily Weekly Monthly Yearly Custom
  High: Low: Average:
Temperature: 69.8 °F /  21 °C 34.5 °F /  1.4 °C 50.7 °F /  10.4 °C
Dew Point: 34 °F /  1.1 °C 22.8 °F /  -5.1 °C 29.8 °F /  -1.2 °C
Humidity: 83% 18% 52%
Wind Speed: 10.1mph /  16.3km/h - 1.6mph /  2.5km/h
Wind Gust: 13mph /  20.9km/h - -
Wind- - ESE
Pressure: 30.3 in /  1024.4 hPa 30.1 in /  1018.3 hPa -
Precipitation: 0 in /  0.0 mm    
Historical Graphs
 
 
Tabular Data for June 15, 2020
Time Temperature Dew Point Pressure Wind Wind Speed Wind Gust Humidity Rainfall Rate (Hourly) solar
00:04 39.4 °F /  4.1 °C 31.5 °F /  -0.3 °C 30.3in /  1024.4hPa Calm     73% 0in /  0.0mm 0 W/m2
00:09 39.4 °F /  4.1 °C 31.8 °F /  -0.1 °C 30.3in /  1024.4hPa Calm   1mph /  1.6km/h 74% 0in /  0.0mm 0 W/m2
00:14 39 °F /  3.9 °C 31.5 °F /  -0.3 °C 30.3in /  1024.4hPa SSW 0.9mph /  1.4km/h 1mph /  1.6km/h 74% 0in /  0.0mm 0 W/m2
00:19 39 °F /  3.9 °C 31.5 °F /  -0.3 °C 30.3in /  1024.4hPa Calm     74% 0in /  0.0mm 0 W/m2
00:24 38.8 °F /  3.8 °C 31.6 °F /  -0.2 °C 30.3in /  1024.4hPa Calm     75% 0in /  0.0mm 0 W/m2
00:29 38.8 °F /  3.8 °C 31.6 °F /  -0.2 °C 30.3in /  1024.4hPa Calm     75% 0in /  0.0mm 0 W/m2
00:34 38.7 °F /  3.7 °C 31.5 °F /  -0.3 °C 30.3in /  1024.4hPa Calm     75% 0in /  0.0mm 0 W/m2
00:39 38.5 °F /  3.6 °C 31.3 °F /  -0.4 °C 30.2in /  1024.0hPa Calm     75% 0in /  0.0mm 0 W/m2
00:44 38.3 °F /  3.5 °C 31.5 °F /  -0.3 °C 30.3in /  1024.4hPa Calm     76% 0in /  0.0mm 0 W/m2
00:49 38.1 °F /  3.4 °C 31.3 °F /  -0.4 °C 30.3in /  1024.4hPa Calm     76% 0in /  0.0mm 0 W/m2
00:54 37.9 °F /  3.3 °C 31.5 °F /  -0.3 °C 30.3in /  1024.4hPa SSW 0.9mph /  1.4km/h 2mph /  3.2km/h 77% 0in /  0.0mm 0 W/m2
00:59 37.9 °F /  3.3 °C 31.5 °F /  -0.3 °C 30.3in /  1024.4hPa Calm   1mph /  1.6km/h 77% 0in /  0.0mm 0 W/m2
01:04 37.9 °F /  3.3 °C 31.5 °F /  -0.3 °C 30.3in /  1024.4hPa Calm   2mph /  3.2km/h 77% 0in /  0.0mm 0 W/m2
01:10 37.9 °F /  3.3 °C 31.5 °F /  -0.3 °C 30.3in /  1024.4hPa Calm   1mph /  1.6km/h 77% 0in /  0.0mm 0 W/m2
01:15 37.9 °F /  3.3 °C 31.5 °F /  -0.3 °C 30.3in /  1024.4hPa Calm   1mph /  1.6km/h 77% 0in /  0.0mm 0 W/m2
01:20 37.8 °F /  3.2 °C 31.3 °F /  -0.4 °C 30.3in /  1024.4hPa Calm     77% 0in /  0.0mm 0 W/m2
01:25 37.8 °F /  3.2 °C 31.3 °F /  -0.4 °C 30.3in /  1024.4hPa Calm   1mph /  1.6km/h 77% 0in /  0.0mm 0 W/m2
01:30 37.8 °F /  3.2 °C 31.5 °F /  -0.3 °C 30.3in /  1024.4hPa Calm     78% 0in /  0.0mm 0 W/m2
01:35 37.6 °F /  3.1 °C 31.3 °F /  -0.4 °C 30.3in /  1024.4hPa Calm     78% 0in /  0.0mm 0 W/m2
01:40 37.4 °F /  3 °C 31.1 °F /  -0.5 °C 30.3in /  1024.4hPa Calm     78% 0in /  0.0mm 0 W/m2
01:45 37.2 °F /  2.9 °C 30.9 °F /  -0.6 °C 30.2in /  1024.0hPa Calm     78% 0in /  0.0mm 0 W/m2
01:50 37 °F /  2.8 °C 31.1 °F /  -0.5 °C 30.2in /  1024.0hPa Calm     79% 0in /  0.0mm 0 W/m2
01:55 37 °F /  2.8 °C 30.7 °F /  -0.7 °C 30.2in /  1024.0hPa Calm     78% 0in /  0.0mm 0 W/m2
02:00 37 °F /  2.8 °C 31.1 °F /  -0.5 °C 30.2in /  1024.0hPa Calm     79% 0in /  0.0mm 0 W/m2
02:05 37 °F /  2.8 °C 31.1 °F /  -0.5 °C 30.2in /  1024.0hPa Calm     79% 0in /  0.0mm 0 W/m2
02:10 37 °F /  2.8 °C 31.1 °F /  -0.5 °C 30.2in /  1024.0hPa Calm     79% 0in /  0.0mm 0 W/m2
02:15 37.2 °F /  2.9 °C 31.3 °F /  -0.4 °C 30.2in /  1024.0hPa SE 2mph /  3.2km/h 3mph /  4.8km/h 79% 0in /  0.0mm 0 W/m2
02:20 37.6 °F /  3.1 °C 31.3 °F /  -0.4 °C 30.2in /  1024.0hPa Calm   1mph /  1.6km/h 78% 0in /  0.0mm 0 W/m2
02:25 37.8 °F /  3.2 °C 31.5 °F /  -0.3 °C 30.2in /  1023.7hPa Calm     78% 0in /  0.0mm 0 W/m2
02:30 37.8 °F /  3.2 °C 31.3 °F /  -0.4 °C 30.2in /  1023.7hPa East 0.9mph /  1.4km/h 3mph /  4.8km/h 77% 0in /  0.0mm 0 W/m2
02:35 37.9 °F /  3.3 °C 31.5 °F /  -0.3 °C 30.2in /  1023.7hPa Calm   1mph /  1.6km/h 77% 0in /  0.0mm 0 W/m2
02:40 38.1 °F /  3.4 °C 31.3 °F /  -0.4 °C 30.2in /  1023.7hPa Calm   3mph /  4.8km/h 76% 0in /  0.0mm 0 W/m2
02:45 37.9 °F /  3.3 °C 31.1 °F /  -0.5 °C 30.2in /  1023.7hPa East 0.9mph /  1.4km/h 2mph /  3.2km/h 76% 0in /  0.0mm 0 W/m2
02:50 37.9 °F /  3.3 °C 31.1 °F /  -0.5 °C 30.2in /  1023.7hPa Calm     76% 0in /  0.0mm 0 W/m2
02:55 37.8 °F /  3.2 °C 30.9 °F /  -0.6 °C 30.2in /  1023.7hPa Calm   1mph /  1.6km/h 76% 0in /  0.0mm 0 W/m2
03:01 37.6 °F /  3.1 °C 30.7 °F /  -0.7 °C 30.2in /  1023.7hPa East 0.9mph /  1.4km/h 1mph /  1.6km/h 76% 0in /  0.0mm 0 W/m2
03:06 37.4 °F /  3 °C 30.9 °F /  -0.6 °C 30.2in /  1023.7hPa East 0.9mph /  1.4km/h 2mph /  3.2km/h 77% 0in /  0.0mm 0 W/m2
03:11 37.2 °F /  2.9 °C 30.7 °F /  -0.7 °C 30.2in /  1023.7hPa Calm   1mph /  1.6km/h 77% 0in /  0.0mm 0 W/m2
03:16 37 °F /  2.8 °C 30.7 °F /  -0.7 °C 30.2in /  1023.7hPa Calm   2mph /  3.2km/h 78% 0in /  0.0mm 0 W/m2
03:21 36.9 °F /  2.7 °C 30.6 °F /  -0.8 °C 30.2in /  1023.4hPa East 0.9mph /  1.4km/h 2mph /  3.2km/h 78% 0in /  0.0mm 0 W/m2
03:26 36.9 °F /  2.7 °C 30.9 °F /  -0.6 °C 30.2in /  1023.4hPa Calm     79% 0in /  0.0mm 0 W/m2
03:31 36.7 °F /  2.6 °C 30.7 °F /  -0.7 °C 30.2in /  1023.4hPa Calm   2mph /  3.2km/h 79% 0in /  0.0mm 0 W/m2
03:36 36.5 °F /  2.5 °C 30.6 °F /  -0.8 °C 30.2in /  1023.4hPa Calm     79% 0in /  0.0mm 0 W/m2
03:41 36.3 °F /  2.4 °C 30.4 °F /  -0.9 °C 30.2in /  1023.4hPa Calm     79% 0in /  0.0mm 0 W/m2
03:46 36.1 °F /  2.3 °C 30.2 °F /  -1 °C 30.2in /  1023.4hPa Calm     79% 0in /  0.0mm 0 W/m2
03:51 36 °F /  2.2 °C 30.4 °F /  -0.9 °C 30.2in /  1023.4hPa Calm   1mph /  1.6km/h 80% 0in /  0.0mm 0 W/m2
03:57 36 °F /  2.2 °C 30.4 °F /  -0.9 °C 30.2in /  1023.4hPa Calm     80% 0in /  0.0mm 0 W/m2
04:02 36 °F /  2.2 °C 30.4 °F /  -0.9 °C 30.2in /  1023.4hPa Calm     80% 0in /  0.0mm 0 W/m2
04:07 35.8 °F /  2.1 °C 30.2 °F /  -1 °C 30.2in /  1023.4hPa Calm     80% 0in /  0.0mm 0 W/m2
04:12 35.8 °F /  2.1 °C 30.6 °F /  -0.8 °C 30.2in /  1023.4hPa Calm   1mph /  1.6km/h 81% 0in /  0.0mm 0 W/m2
04:17 35.8 °F /  2.1 °C 30.6 °F /  -0.8 °C 30.2in /  1023.4hPa East 0.9mph /  1.4km/h 1mph /  1.6km/h 81% 0in /  0.0mm 0 W/m2
04:22 35.8 °F /  2.1 °C 30.6 °F /  -0.8 °C 30.2in /  1023.4hPa East 0.9mph /  1.4km/h 1mph /  1.6km/h 81% 0in /  0.0mm 0 W/m2
04:27 35.8 °F /  2.1 °C 30.6 °F /  -0.8 °C 30.2in /  1023.4hPa Calm   1mph /  1.6km/h 81% 0in /  0.0mm 0 W/m2
04:32 35.6 °F /  2 °C 30.4 °F /  -0.9 °C 30.2in /  1023.4hPa East 0.9mph /  1.4km/h 2mph /  3.2km/h 81% 0in /  0.0mm 0 W/m2
04:37 35.6 °F /  2 °C 30.4 °F /  -0.9 °C 30.2in /  1023.4hPa Calm     81% 0in /  0.0mm 0 W/m2
04:42 35.8 °F /  2.1 °C 30.6 °F /  -0.8 °C 30.2in /  1023.4hPa Calm   2mph /  3.2km/h 81% 0in /  0.0mm 0 W/m2
04:47 35.6 °F /  2 °C 30.4 °F /  -0.9 °C 30.2in /  1023.4hPa Calm     81% 0in /  0.0mm 0 W/m2
04:52 35.4 °F /  1.9 °C 30.2 °F /  -1 °C 30.2in /  1023.4hPa Calm     81% 0in /  0.0mm 0 W/m2
04:57 35.2 °F /  1.8 °C 30 °F /  -1.1 °C 30.2in /  1023.4hPa Calm     81% 0in /  0.0mm 0 W/m2
05:02 35.2 °F /  1.8 °C 30.4 °F /  -0.9 °C 30.2in /  1023.4hPa Calm     82% 0in /  0.0mm 0 W/m2
05:07 35.2 °F /  1.8 °C 30.4 °F /  -0.9 °C 30.2in /  1023.4hPa Calm     82% 0in /  0.0mm 0 W/m2
05:12 35.2 °F /  1.8 °C 30.4 °F /  -0.9 °C 30.2in /  1023.4hPa Calm     82% 0in /  0.0mm 0 W/m2
05:17 35.1 °F /  1.7 °C 30.2 °F /  -1 °C 30.2in /  1023.4hPa Calm     82% 0in /  0.0mm 0 W/m2
05:22 35.1 °F /  1.7 °C 30.2 °F /  -1 °C 30.2in /  1023.4hPa Calm     82% 0in /  0.0mm 0 W/m2
05:27 35.1 °F /  1.7 °C 30.2 °F /  -1 °C 30.2in /  1023.0hPa Calm     82% 0in /  0.0mm 0 W/m2
05:32 35.1 °F /  1.7 °C 30.2 °F /  -1 °C 30.2in /  1023.0hPa Calm     82% 0in /  0.0mm 0 W/m2
05:37 34.9 °F /  1.6 °C 30 °F /  -1.1 °C 30.2in /  1023.4hPa Calm     82% 0in /  0.0mm 0 W/m2
05:42 34.9 °F /  1.6 °C 30 °F /  -1.1 °C 30.2in /  1023.4hPa Calm     82% 0in /  0.0mm 0 W/m2
05:47 34.7 °F /  1.5 °C 30 °F /  -1.1 °C 30.2in /  1023.4hPa Calm   1mph /  1.6km/h 83% 0in /  0.0mm 0 W/m2
05:52 34.7 °F /  1.5 °C 30 °F /  -1.1 °C 30.2in /  1023.4hPa Calm     83% 0in /  0.0mm 0 W/m2
05:57 34.5 °F /  1.4 °C 29.8 °F /  -1.2 °C 30.2in /  1023.4hPa Calm     83% 0in /  0.0mm 0 W/m2
06:02 34.5 °F /  1.4 °C 29.8 °F /  -1.2 °C 30.2in /  1023.4hPa East 0.9mph /  1.4km/h 2mph /  3.2km/h 83% 0in /  0.0mm 0 W/m2
06:07 34.7 °F /  1.5 °C 30 °F /  -1.1 °C 30.2in /  1023.4hPa Calm   1mph /  1.6km/h 83% 0in /  0.0mm 0 W/m2
06:12 34.9 °F /  1.6 °C 30.2 °F /  -1 °C 30.2in /  1023.4hPa SSE 0.9mph /  1.4km/h 2mph /  3.2km/h 83% 0in /  0.0mm 0 W/m2
06:17 35.1 °F /  1.7 °C 30.4 °F /  -0.9 °C 30.2in /  1023.4hPa Calm   1mph /  1.6km/h 83% 0in /  0.0mm 0 W/m2
06:22 35.1 °F /  1.7 °C 30.2 °F /  -1 °C 30.2in /  1023.0hPa Calm     82% 0in /  0.0mm 0 W/m2
06:27 35.1 °F /  1.7 °C 30.2 °F /  -1 °C 30.2in /  1023.0hPa Calm   1mph /  1.6km/h 82% 0in /  0.0mm 0 W/m2
06:32 34.9 °F /  1.6 °C 30 °F /  -1.1 °C 30.2in /  1023.0hPa Calm   1mph /  1.6km/h 82% 0in /  0.0mm 0 W/m2
06:37 34.9 °F /  1.6 °C 30 °F /  -1.1 °C 30.2in /  1023.0hPa Calm   1mph /  1.6km/h 82% 0in /  0.0mm 0 W/m2
06:42 34.9 °F /  1.6 °C 30 °F /  -1.1 °C 30.2in /  1023.0hPa Calm     82% 0in /  0.0mm 0 W/m2
06:47 34.9 °F /  1.6 °C 30.2 °F /  -1 °C 30.2in /  1023.4hPa Calm   2mph /  3.2km/h 83% 0in /  0.0mm 0 W/m2
06:52 35.1 °F /  1.7 °C 30.2 °F /  -1 °C 30.2in /  1023.4hPa Calm   2mph /  3.2km/h 82% 0in /  0.0mm 7 W/m2
06:57 35.1 °F /  1.7 °C 30.2 °F /  -1 °C 30.2in /  1023.4hPa Calm   2mph /  3.2km/h 82% 0in /  0.0mm 9 W/m2
07:02 35.1 °F /  1.7 °C 30.2 °F /  -1 °C 30.2in /  1023.4hPa SSE 2mph /  3.2km/h 3mph /  4.8km/h 82% 0in /  0.0mm 12 W/m2
07:07 35.2 °F /  1.8 °C 30.4 °F /  -0.9 °C 30.2in /  1023.4hPa Calm   2mph /  3.2km/h 82% 0in /  0.0mm 14 W/m2
07:12 35.2 °F /  1.8 °C 30.4 °F /  -0.9 °C 30.2in /  1023.4hPa Calm   1mph /  1.6km/h 82% 0in /  0.0mm 19 W/m2
07:17 35.2 °F /  1.8 °C 30.4 °F /  -0.9 °C 30.2in /  1023.4hPa Calm   4mph /  6.4km/h 82% 0in /  0.0mm 21 W/m2
07:23 35.2 °F /  1.8 °C 30 °F /  -1.1 °C 30.2in /  1023.4hPa SSE 0.9mph /  1.4km/h 1mph /  1.6km/h 81% 0in /  0.0mm 26 W/m2
07:28 35.4 °F /  1.9 °C 30.2 °F /  -1 °C 30.2in /  1023.4hPa SSE 0.9mph /  1.4km/h 1mph /  1.6km/h 81% 0in /  0.0mm 30 W/m2
07:33 35.4 °F /  1.9 °C 30.2 °F /  -1 °C 30.2in /  1023.4hPa SSE 0.9mph /  1.4km/h 1mph /  1.6km/h 81% 0in /  0.0mm 33 W/m2
07:38 35.6 °F /  2 °C 30.4 °F /  -0.9 °C 30.2in /  1023.4hPa Calm     81% 0in /  0.0mm 35 W/m2
07:43 35.6 °F /  2 °C 30.4 °F /  -0.9 °C 30.2in /  1023.4hPa Calm     81% 0in /  0.0mm 39 W/m2
07:48 35.8 °F /  2.1 °C 30.6 °F /  -0.8 °C 30.2in /  1023.4hPa South 0.9mph /  1.4km/h 2mph /  3.2km/h 81% 0in /  0.0mm 42 W/m2
07:53 35.8 °F /  2.1 °C 30.6 °F /  -0.8 °C 30.2in /  1023.4hPa Calm     81% 0in /  0.0mm 56 W/m2
07:58 35.8 °F /  2.1 °C 30.6 °F /  -0.8 °C 30.2in /  1023.7hPa Calm     81% 0in /  0.0mm 76 W/m2
08:03 36 °F /  2.2 °C 30.4 °F /  -0.9 °C 30.2in /  1023.7hPa Calm     80% 0in /  0.0mm 90 W/m2
08:08 36.1 °F /  2.3 °C 30.9 °F /  -0.6 °C 30.2in /  1023.7hPa Calm     81% 0in /  0.0mm 107 W/m2
08:13 36.3 °F /  2.4 °C 30.7 °F /  -0.7 °C 30.2in /  1023.7hPa Calm     80% 0in /  0.0mm 116 W/m2
08:18 36.9 °F /  2.7 °C 31.3 °F /  -0.4 °C 30.2in /  1023.7hPa Calm     80% 0in /  0.0mm 113 W/m2
08:23 37 °F /  2.8 °C 31.1 °F /  -0.5 °C 30.2in /  1023.7hPa Calm     79% 0in /  0.0mm 125 W/m2
08:28 37.4 °F /  3 °C 31.5 °F /  -0.3 °C 30.2in /  1023.7hPa South 0.9mph /  1.4km/h 1mph /  1.6km/h 79% 0in /  0.0mm 118 W/m2
08:33 37.9 °F /  3.3 °C 31.5 °F /  -0.3 °C 30.2in /  1023.7hPa Calm   1mph /  1.6km/h 77% 0in /  0.0mm 135 W/m2
08:38 38.1 °F /  3.4 °C 31.6 °F /  -0.2 °C 30.2in /  1023.7hPa Calm     77% 0in /  0.0mm 128 W/m2
08:43 38.7 °F /  3.7 °C 32 °F /  0 °C 30.2in /  1024.0hPa Calm     77% 0in /  0.0mm 153 W/m2
08:48 39 °F /  3.9 °C 32.2 °F /  0.1 °C 30.2in /  1023.7hPa ENE 0.9mph /  1.4km/h 3mph /  4.8km/h 76% 0in /  0.0mm 193 W/m2
08:53 39.6 °F /  4.2 °C 32 °F /  0 °C 30.2in /  1023.7hPa ENE 2mph /  3.2km/h 3mph /  4.8km/h 74% 0in /  0.0mm 239 W/m2
08:58 40.3 °F /  4.6 °C 32.4 °F /  0.2 °C 30.2in /  1023.7hPa ESE 0.9mph /  1.4km/h 3mph /  4.8km/h 73% 0in /  0.0mm 330 W/m2
09:03 41.2 °F /  5.1 °C 32.5 °F /  0.3 °C 30.2in /  1023.7hPa East 0.9mph /  1.4km/h 5mph /  8km/h 71% 0in /  0.0mm 348 W/m2
09:08 41.7 °F /  5.4 °C 32.4 °F /  0.2 °C 30.2in /  1023.7hPa East 2mph /  3.2km/h 3mph /  4.8km/h 69% 0in /  0.0mm 346 W/m2
09:13 42.4 °F /  5.8 °C 32.7 °F /  0.4 °C 30.2in /  1023.7hPa East 2mph /  3.2km/h 4mph /  6.4km/h 68% 0in /  0.0mm 352 W/m2
09:18 43.2 °F /  6.2 °C 32.2 °F /  0.1 °C 30.2in /  1023.7hPa ENE 4.9mph /  7.9km/h 6mph /  9.7km/h 65% 0in /  0.0mm 350 W/m2
09:23 43.9 °F /  6.6 °C 32.5 °F /  0.3 °C 30.2in /  1023.7hPa ESE 2.9mph /  4.7km/h 5mph /  8km/h 64% 0in /  0.0mm 381 W/m2
09:28 44.2 °F /  6.8 °C 32.4 °F /  0.2 °C 30.2in /  1023.7hPa Calm   3mph /  4.8km/h 63% 0in /  0.0mm 392 W/m2
09:33 45 °F /  7.2 °C 32.7 °F /  0.4 °C 30.2in /  1024.0hPa East 2mph /  3.2km/h 4mph /  6.4km/h 62% 0in /  0.0mm 406 W/m2
09:38 45.7 °F /  7.6 °C 33.1 °F /  0.6 °C 30.2in /  1024.0hPa ESE 6.9mph /  11.1km/h 7mph /  11.3km/h 61% 0in /  0.0mm 420 W/m2
09:43 46.4 °F /  8 °C 32.9 °F /  0.5 °C 30.2in /  1023.7hPa East 2.9mph /  4.7km/h 3mph /  4.8km/h 59% 0in /  0.0mm 413 W/m2
09:48 46.8 °F /  8.2 °C 32.7 °F /  0.4 °C 30.2in /  1024.0hPa ENE 4mph /  6.4km/h 6mph /  9.7km/h 58% 0in /  0.0mm 60 W/m2
09:53 47.5 °F /  8.6 °C 33.8 °F /  1 °C 30.2in /  1023.7hPa East 2.9mph /  4.7km/h 7mph /  11.3km/h 59% 0in /  0.0mm 457 W/m2
09:58 47.8 °F /  8.8 °C 33.3 °F /  0.7 °C 30.2in /  1023.7hPa SE 2.9mph /  4.7km/h 5mph /  8km/h 57% 0in /  0.0mm 466 W/m2
10:03 48.6 °F /  9.2 °C 34 °F /  1.1 °C 30.2in /  1023.7hPa NE 2.9mph /  4.7km/h 4mph /  6.4km/h 57% 0in /  0.0mm 475 W/m2
10:08 49.1 °F /  9.5 °C 32.7 °F /  0.4 °C 30.2in /  1023.7hPa ENE 4mph /  6.4km/h 12mph /  19.3km/h 53% 0in /  0.0mm 473 W/m2
10:13 49.6 °F /  9.8 °C 32.7 °F /  0.4 °C 30.2in /  1023.7hPa East 6.9mph /  11.1km/h 9mph /  14.5km/h 52% 0in /  0.0mm 471 W/m2
10:18 50.5 °F /  10.3 °C 31.6 °F /  -0.2 °C 30.2in /  1023.7hPa ENE 6.9mph /  11.1km/h 10mph /  16.1km/h 48% 0in /  0.0mm 504 W/m2
10:23 51.1 °F /  10.6 °C 31.1 °F /  -0.5 °C 30.2in /  1024.0hPa ENE 4mph /  6.4km/h 13mph /  20.9km/h 46% 0in /  0.0mm 515 W/m2
10:28 51.3 °F /  10.7 °C 31.1 °F /  -0.5 °C 30.2in /  1023.7hPa East 4.9mph /  7.9km/h 5mph /  8km/h 46% 0in /  0.0mm 496 W/m2
10:33 51.6 °F /  10.9 °C 31.5 °F /  -0.3 °C 30.2in /  1023.7hPa ENE 2.9mph /  4.7km/h 8mph /  12.9km/h 46% 0in /  0.0mm 547 W/m2
10:38 52.2 °F /  11.2 °C 31.5 °F /  -0.3 °C 30.2in /  1023.7hPa NNE 2.9mph /  4.7km/h 4mph /  6.4km/h 45% 0in /  0.0mm 524 W/m2
10:43 52.5 °F /  11.4 °C 31.3 °F /  -0.4 °C 30.2in /  1023.7hPa East 4mph /  6.4km/h 4mph /  6.4km/h 44% 0in /  0.0mm 564 W/m2
10:48 52.9 °F /  11.6 °C 30.9 °F /  -0.6 °C 30.2in /  1023.7hPa ESE 4mph /  6.4km/h 9mph /  14.5km/h 43% 0in /  0.0mm 573 W/m2
10:53 53.2 °F /  11.8 °C 30.7 °F /  -0.7 °C 30.2in /  1023.7hPa NE 4mph /  6.4km/h 8mph /  12.9km/h 42% 0in /  0.0mm 585 W/m2
10:58 53.6 °F /  12 °C 31.1 °F /  -0.5 °C 30.2in /  1023.7hPa ESE 6.9mph /  11.1km/h 7mph /  11.3km/h 42% 0in /  0.0mm 589 W/m2
11:04 54 °F /  12.2 °C 30.7 °F /  -0.7 °C 30.2in /  1023.7hPa East 2.9mph /  4.7km/h 11mph /  17.7km/h 41% 0in /  0.0mm 599 W/m2
11:09 53.8 °F /  12.1 °C 31.8 °F /  -0.1 °C 30.2in /  1023.7hPa ESE 4mph /  6.4km/h 6mph /  9.7km/h 43% 0in /  0.0mm 601 W/m2
11:14 54.3 °F /  12.4 °C 31.1 °F /  -0.5 °C 30.2in /  1023.7hPa ENE 0.9mph /  1.4km/h 11mph /  17.7km/h 41% 0in /  0.0mm 629 W/m2
11:19 54.9 °F /  12.7 °C 30.9 °F /  -0.6 °C 30.2in /  1023.7hPa ESE 6.9mph /  11.1km/h 9mph /  14.5km/h 40% 0in /  0.0mm 608 W/m2
11:24 55 °F /  12.8 °C 31.1 °F /  -0.5 °C 30.2in /  1023.7hPa ESE 6.9mph /  11.1km/h 8mph /  12.9km/h 40% 0in /  0.0mm 638 W/m2
11:29 55.2 °F /  12.9 °C 30.7 °F /  -0.7 °C 30.2in /  1023.4hPa East 6.9mph /  11.1km/h 7mph /  11.3km/h 39% 0in /  0.0mm 656 W/m2
11:34 55.4 °F /  13 °C 29.5 °F /  -1.4 °C 30.2in /  1023.7hPa ENE 4.9mph /  7.9km/h 8mph /  12.9km/h 37% 0in /  0.0mm 657 W/m2
11:39 55.4 °F /  13 °C 30.9 °F /  -0.6 °C 30.2in /  1023.7hPa ENE 2mph /  3.2km/h 8mph /  12.9km/h 39% 0in /  0.0mm 626 W/m2
11:44 55.6 °F /  13.1 °C 29.7 °F /  -1.3 °C 30.2in /  1023.4hPa NE 4mph /  6.4km/h 6mph /  9.7km/h 37% 0in /  0.0mm 661 W/m2
11:49 55.8 °F /  13.2 °C 31.1 °F /  -0.5 °C 30.2in /  1023.4hPa East 2.9mph /  4.7km/h 6mph /  9.7km/h 39% 0in /  0.0mm 680 W/m2
11:54 56.1 °F /  13.4 °C 30.2 °F /  -1 °C 30.2in /  1023.4hPa NE 4mph /  6.4km/h 7mph /  11.3km/h 37% 0in /  0.0mm 696 W/m2
12:00 56.3 °F /  13.5 °C 30.4 °F /  -0.9 °C 30.2in /  1023.4hPa East 4.9mph /  7.9km/h 7mph /  11.3km/h 37% 0in /  0.0mm 708 W/m2
12:05 56.7 °F /  13.7 °C 29.3 °F /  -1.5 °C 30.2in /  1023.4hPa SE 4mph /  6.4km/h 9mph /  14.5km/h 35% 0in /  0.0mm 689 W/m2
12:10 57.4 °F /  14.1 °C 29.3 °F /  -1.5 °C 30.2in /  1023.4hPa NNE 2mph /  3.2km/h 13mph /  20.9km/h 34% 0in /  0.0mm 717 W/m2
12:15 57.6 °F /  14.2 °C 28.6 °F /  -1.9 °C 30.2in /  1023.4hPa ESE 4mph /  6.4km/h 8mph /  12.9km/h 33% 0in /  0.0mm 707 W/m2
12:20 57.9 °F /  14.4 °C 28.9 °F /  -1.7 °C 30.2in /  1023.0hPa NE 4.9mph /  7.9km/h 13mph /  20.9km/h 33% 0in /  0.0mm 717 W/m2
12:25 58.3 °F /  14.6 °C 29.3 °F /  -1.5 °C 30.2in /  1023.0hPa ENE 2mph /  3.2km/h 10mph /  16.1km/h 33% 0in /  0.0mm 722 W/m2
12:30 58.5 °F /  14.7 °C 30.2 °F /  -1 °C 30.2in /  1023.0hPa East 2.9mph /  4.7km/h 8mph /  12.9km/h 34% 0in /  0.0mm 710 W/m2
12:35 58.6 °F /  14.8 °C 29.7 °F /  -1.3 °C 30.2in /  1023.0hPa ENE 0.9mph /  1.4km/h 4mph /  6.4km/h 33% 0in /  0.0mm 733 W/m2
12:40 59 °F /  15 °C 30 °F /  -1.1 °C 30.2in /  1022.7hPa NE 4mph /  6.4km/h 6mph /  9.7km/h 33% 0in /  0.0mm 722 W/m2
12:45 58.8 °F /  14.9 °C 29.8 °F /  -1.2 °C 30.2in /  1022.7hPa SE 2mph /  3.2km/h 11mph /  17.7km/h 33% 0in /  0.0mm 738 W/m2
12:50 59.2 °F /  15.1 °C 30.7 °F /  -0.7 °C 30.2in /  1022.7hPa East 2.9mph /  4.7km/h 6mph /  9.7km/h 34% 0in /  0.0mm 740 W/m2
12:55 59.5 °F /  15.3 °C 29.7 °F /  -1.3 °C 30.2in /  1022.7hPa NE 4.9mph /  7.9km/h 7mph /  11.3km/h 32% 0in /  0.0mm 731 W/m2
13:00 59.9 °F /  15.5 °C 30 °F /  -1.1 °C 30.2in /  1022.7hPa ESE 2mph /  3.2km/h 8mph /  12.9km/h 32% 0in /  0.0mm 714 W/m2
13:05 60.4 °F /  15.8 °C 29.7 °F /  -1.3 °C 30.2in /  1022.4hPa ESE 2.9mph /  4.7km/h 8mph /  12.9km/h 31% 0in /  0.0mm 744 W/m2
13:10 60.1 °F /  15.6 °C 28.6 °F /  -1.9 °C 30.2in /  1022.4hPa SE 2mph /  3.2km/h 8mph /  12.9km/h 30% 0in /  0.0mm 756 W/m2
13:15 60.3 °F /  15.7 °C 28.8 °F /  -1.8 °C 30.2in /  1022.4hPa ESE 2mph /  3.2km/h 6mph /  9.7km/h 30% 0in /  0.0mm 759 W/m2
13:20 60.3 °F /  15.7 °C 30.2 °F /  -1 °C 30.2in /  1022.4hPa ESE 0.9mph /  1.4km/h 4mph /  6.4km/h 32% 0in /  0.0mm 724 W/m2
13:25 60.4 °F /  15.8 °C 28.9 °F /  -1.7 °C 30.2in /  1022.4hPa ENE 2mph /  3.2km/h 4mph /  6.4km/h 30% 0in /  0.0mm 689 W/m2
13:30 61.2 °F /  16.2 °C 28.6 °F /  -1.9 °C 30.2in /  1022.0hPa NNE 4mph /  6.4km/h 8mph /  12.9km/h 29% 0in /  0.0mm 765 W/m2
13:35 61.5 °F /  16.4 °C 28 °F /  -2.2 °C 30.2in /  1022.0hPa East 0.9mph /  1.4km/h 5mph /  8km/h 28% 0in /  0.0mm 766 W/m2
13:40 61.7 °F /  16.5 °C 29.1 °F /  -1.6 °C 30.2in /  1022.0hPa NNE 4.9mph /  7.9km/h 7mph /  11.3km/h 29% 0in /  0.0mm 751 W/m2
13:45 61.9 °F /  16.6 °C 30.9 °F /  -0.6 °C 30.2in /  1022.0hPa NE 10.1mph /  16.3km/h 10mph /  16.1km/h 31% 0in /  0.0mm 670 W/m2
13:50 61.5 °F /  16.4 °C 28.9 °F /  -1.7 °C 30.2in /  1022.0hPa WNW 0.9mph /  1.4km/h 12mph /  19.3km/h 29% 0in /  0.0mm 744 W/m2
13:55 62.1 °F /  16.7 °C 28.6 °F /  -1.9 °C 30.2in /  1021.7hPa East 2mph /  3.2km/h 8mph /  12.9km/h 28% 0in /  0.0mm 751 W/m2
14:00 62.2 °F /  16.8 °C 28.8 °F /  -1.8 °C 30.2in /  1021.7hPa South 2mph /  3.2km/h 12mph /  19.3km/h 28% 0in /  0.0mm 745 W/m2
14:05 62.6 °F /  17 °C 29.1 °F /  -1.6 °C 30.2in /  1021.7hPa ESE 4.9mph /  7.9km/h 7mph /  11.3km/h 28% 0in /  0.0mm 729 W/m2
14:10 63.1 °F /  17.3 °C 29.5 °F /  -1.4 °C 30.2in /  1021.3hPa SSE 0.9mph /  1.4km/h 12mph /  19.3km/h 28% 0in /  0.0mm 752 W/m2
14:15 63.3 °F /  17.4 °C 27.9 °F /  -2.3 °C 30.2in /  1021.3hPa Calm   4mph /  6.4km/h 26% 0in /  0.0mm 729 W/m2
14:20 63.5 °F /  17.5 °C 25 °F /  -3.9 °C 30.2in /  1021.3hPa East 4mph /  6.4km/h 9mph /  14.5km/h 23% 0in /  0.0mm 714 W/m2
14:25 64 °F /  17.8 °C 28.4 °F /  -2 °C 30.2in /  1021.3hPa NNE 8.1mph /  13km/h 8mph /  12.9km/h 26% 0in /  0.0mm 710 W/m2
14:30 63.9 °F /  17.7 °C 26.4 °F /  -3.1 °C 30.2in /  1021.3hPa East 0.9mph /  1.4km/h 3mph /  4.8km/h 24% 0in /  0.0mm 733 W/m2
14:35 64.2 °F /  17.9 °C 27.7 °F /  -2.4 °C 30.2in /  1021.3hPa SE 0.9mph /  1.4km/h 6mph /  9.7km/h 25% 0in /  0.0mm 731 W/m2
14:40 64.6 °F /  18.1 °C 27 °F /  -2.8 °C 30.2in /  1021.0hPa NE 2.9mph /  4.7km/h 4mph /  6.4km/h 24% 0in /  0.0mm 731 W/m2
14:45 64.8 °F /  18.2 °C 26.1 °F /  -3.3 °C 30.2in /  1021.0hPa ENE 2.9mph /  4.7km/h 5mph /  8km/h 23% 0in /  0.0mm 707 W/m2
14:50 65.5 °F /  18.6 °C 26.8 °F /  -2.9 °C 30.2in /  1021.0hPa East 2.9mph /  4.7km/h 7mph /  11.3km/h 23% 0in /  0.0mm 696 W/m2
14:55 65.5 °F /  18.6 °C 24.4 °F /  -4.2 °C 30.2in /  1021.0hPa NE 6mph /  9.7km/h 12mph /  19.3km/h 21% 0in /  0.0mm 701 W/m2
15:00 65.5 °F /  18.6 °C 24.4 °F /  -4.2 °C 30.2in /  1021.0hPa ENE 2.9mph /  4.7km/h 10mph /  16.1km/h 21% 0in /  0.0mm 652 W/m2
15:05 65.7 °F /  18.7 °C 25.7 °F /  -3.5 °C 30.2in /  1021.0hPa ENE 4mph /  6.4km/h 10mph /  16.1km/h 22% 0in /  0.0mm 638 W/m2
15:10 65.8 °F /  18.8 °C 25.9 °F /  -3.4 °C 30.1in /  1020.7hPa ENE 0.9mph /  1.4km/h 9mph /  14.5km/h 22% 0in /  0.0mm 643 W/m2
15:15 65.7 °F /  18.7 °C 24.6 °F /  -4.1 °C 30.1in /  1020.7hPa North 2mph /  3.2km/h 4mph /  6.4km/h 21% 0in /  0.0mm 677 W/m2
15:20 65.8 °F /  18.8 °C 27 °F /  -2.8 °C 30.1in /  1020.7hPa East 4.9mph /  7.9km/h 10mph /  16.1km/h 23% 0in /  0.0mm 661 W/m2
15:25 66 °F /  18.9 °C 25 °F /  -3.9 °C 30.1in /  1020.7hPa ESE 0.9mph /  1.4km/h 7mph /  11.3km/h 21% 0in /  0.0mm 612 W/m2
15:30 66.2 °F /  19 °C 25.2 °F /  -3.8 °C 30.1in /  1020.7hPa East 4mph /  6.4km/h 7mph /  11.3km/h 21% 0in /  0.0mm 624 W/m2
15:35 66.6 °F /  19.2 °C 25.3 °F /  -3.7 °C 30.1in /  1020.7hPa SSE 2.9mph /  4.7km/h 5mph /  8km/h 21% 0in /  0.0mm 619 W/m2
15:40 66.9 °F /  19.4 °C 24.6 °F /  -4.1 °C 30.1in /  1020.7hPa East 2.9mph /  4.7km/h 9mph /  14.5km/h 20% 0in /  0.0mm 626 W/m2
15:45 67.1 °F /  19.5 °C 25.9 °F /  -3.4 °C 30.1in /  1020.3hPa ENE 4.9mph /  7.9km/h 11mph /  17.7km/h 21% 0in /  0.0mm 640 W/m2
15:50 67.5 °F /  19.7 °C 27.3 °F /  -2.6 °C 30.1in /  1020.3hPa ENE 4mph /  6.4km/h 4mph /  6.4km/h 22% 0in /  0.0mm 605 W/m2
15:55 67.8 °F /  19.9 °C 26.4 °F /  -3.1 °C 30.1in /  1020.3hPa North 2.9mph /  4.7km/h 11mph /  17.7km/h 21% 0in /  0.0mm 596 W/m2
16:00 67.8 °F /  19.9 °C 25.3 °F /  -3.7 °C 30.1in /  1020.0hPa ENE 2mph /  3.2km/h 7mph /  11.3km/h 20% 0in /  0.0mm 606 W/m2
16:05 68.2 °F /  20.1 °C 26.8 °F /  -2.9 °C 30.1in /  1020.0hPa ENE 2mph /  3.2km/h 3mph /  4.8km/h 21% 0in /  0.0mm 594 W/m2
16:10 68.4 °F /  20.2 °C 24.4 °F /  -4.2 °C 30.1in /  1020.0hPa ENE 2mph /  3.2km/h 4mph /  6.4km/h 19% 0in /  0.0mm 555 W/m2
16:15 68.5 °F /  20.3 °C 28.2 °F /  -2.1 °C 30.1in /  1020.0hPa ENE 2.9mph /  4.7km/h 8mph /  12.9km/h 22% 0in /  0.0mm 492 W/m2
16:20 68.5 °F /  20.3 °C 27.1 °F /  -2.7 °C 30.1in /  1020.0hPa SE 2mph /  3.2km/h 5mph /  8km/h 21% 0in /  0.0mm 450 W/m2
16:25 68.5 °F /  20.3 °C 28.2 °F /  -2.1 °C 30.1in /  1019.6hPa East 0.9mph /  1.4km/h 4mph /  6.4km/h 22% 0in /  0.0mm 513 W/m2
16:30 68.7 °F /  20.4 °C 24.8 °F /  -4 °C 30.1in /  1019.6hPa ENE 0.9mph /  1.4km/h 9mph /  14.5km/h 19% 0in /  0.0mm 563 W/m2
16:35 68.9 °F /  20.5 °C 25 °F /  -3.9 °C 30.1in /  1019.6hPa ESE 0.9mph /  1.4km/h 3mph /  4.8km/h 19% 0in /  0.0mm 512 W/m2
16:40 69.1 °F /  20.6 °C 25.2 °F /  -3.8 °C 30.1in /  1019.6hPa East 2mph /  3.2km/h 7mph /  11.3km/h 19% 0in /  0.0mm 504 W/m2
16:45 69.4 °F /  20.8 °C 28.9 °F /  -1.7 °C 30.1in /  1019.3hPa East 2mph /  3.2km/h 4mph /  6.4km/h 22% 0in /  0.0mm 462 W/m2
16:50 69.6 °F /  20.9 °C 26.8 °F /  -2.9 °C 30.1in /  1019.3hPa ENE 4.9mph /  7.9km/h 8mph /  12.9km/h 20% 0in /  0.0mm 504 W/m2
16:55 69.8 °F /  21 °C 27 °F /  -2.8 °C 30.1in /  1019.3hPa East 2mph /  3.2km/h 4mph /  6.4km/h 20% 0in /  0.0mm 397 W/m2
17:00 69.6 °F /  20.9 °C 24.3 °F /  -4.3 °C 30.1in /  1019.3hPa NNE 0.9mph /  1.4km/h 6mph /  9.7km/h 18% 0in /  0.0mm 497 W/m2
17:05 69.6 °F /  20.9 °C 25.5 °F /  -3.6 °C 30.1in /  1019.3hPa ENE 6mph /  9.7km/h 10mph /  16.1km/h 19% 0in /  0.0mm 464 W/m2
17:10 69.4 °F /  20.8 °C 25.3 °F /  -3.7 °C 30.1in /  1019.3hPa ENE 2mph /  3.2km/h 5mph /  8km/h 19% 0in /  0.0mm 445 W/m2
17:15 69.4 °F /  20.8 °C 26.6 °F /  -3 °C 30.1in /  1019.3hPa NE 0.9mph /  1.4km/h 7mph /  11.3km/h 20% 0in /  0.0mm 374 W/m2
17:20 69.4 °F /  20.8 °C 25.3 °F /  -3.7 °C 30.1in /  1019.0hPa SE 0.9mph /  1.4km/h 4mph /  6.4km/h 19% 0in /  0.0mm 436 W/m2
17:25 69.3 °F /  20.7 °C 26.4 °F /  -3.1 °C 30.1in /  1019.0hPa SE 2mph /  3.2km/h 7mph /  11.3km/h 20% 0in /  0.0mm 299 W/m2
17:31 69.3 °F /  20.7 °C 25.2 °F /  -3.8 °C 30.1in /  1019.0hPa ENE 0.9mph /  1.4km/h 8mph /  12.9km/h 19% 0in /  0.0mm 371 W/m2
17:36 69.1 °F /  20.6 °C 25.2 °F /  -3.8 °C 30.1in /  1019.0hPa ESE 2mph /  3.2km/h 6mph /  9.7km/h 19% 0in /  0.0mm 374 W/m2
17:41 69.3 °F /  20.7 °C 26.4 °F /  -3.1 °C 30.1in /  1019.0hPa East 2.9mph /  4.7km/h 5mph /  8km/h 20% 0in /  0.0mm 339 W/m2
17:46 69.4 °F /  20.8 °C 27.9 °F /  -2.3 °C 30.1in /  1019.0hPa ENE 2mph /  3.2km/h 6mph /  9.7km/h 21% 0in /  0.0mm 318 W/m2
17:51 69.3 °F /  20.7 °C 26.4 °F /  -3.1 °C 30.1in /  1019.0hPa ENE 4mph /  6.4km/h 5mph /  8km/h 20% 0in /  0.0mm 403 W/m2
17:56 69.1 °F /  20.6 °C 26.2 °F /  -3.2 °C 30.1in /  1019.0hPa East 2mph /  3.2km/h 5mph /  8km/h 20% 0in /  0.0mm 401 W/m2
18:01 69.1 °F /  20.6 °C 25.2 °F /  -3.8 °C 30.1in /  1018.6hPa SSE 2mph /  3.2km/h 8mph /  12.9km/h 19% 0in /  0.0mm 287 W/m2
18:06 68.7 °F /  20.4 °C 24.8 °F /  -4 °C 30.1in /  1018.6hPa SSE 2mph /  3.2km/h 5mph /  8km/h 19% 0in /  0.0mm 229 W/m2
18:11 68.5 °F /  20.3 °C 27.1 °F /  -2.7 °C 30.1in /  1018.6hPa NE 2mph /  3.2km/h 5mph /  8km/h 21% 0in /  0.0mm 274 W/m2
18:16 68.4 °F /  20.2 °C 24.4 °F /  -4.2 °C 30.1in /  1018.6hPa ENE 0.9mph /  1.4km/h 7mph /  11.3km/h 19% 0in /  0.0mm 262 W/m2
18:21 68.4 °F /  20.2 °C 25.7 °F /  -3.5 °C 30.1in /  1018.6hPa NE 2.9mph /  4.7km/h 6mph /  9.7km/h 20% 0in /  0.0mm 237 W/m2
18:26 68.2 °F /  20.1 °C 27.9 °F /  -2.3 °C 30.1in /  1018.6hPa East 4mph /  6.4km/h 6mph /  9.7km/h 22% 0in /  0.0mm 283 W/m2
18:31 68.2 °F /  20.1 °C 24.3 °F /  -4.3 °C 30.1in /  1018.3hPa East 2.9mph /  4.7km/h 7mph /  11.3km/h 19% 0in /  0.0mm 274 W/m2
18:36 68.2 °F /  20.1 °C 25.5 °F /  -3.6 °C 30.1in /  1018.3hPa ENE 4.9mph /  7.9km/h 9mph /  14.5km/h 20% 0in /  0.0mm 207 W/m2
18:41 68 °F /  20 °C 24.3 °F /  -4.3 °C 30.1in /  1018.3hPa ENE 0.9mph /  1.4km/h 6mph /  9.7km/h 19% 0in /  0.0mm 206 W/m2
18:46 67.8 °F /  19.9 °C 24.1 °F /  -4.4 °C 30.1in /  1018.3hPa East 0.9mph /  1.4km/h 5mph /  8km/h 19% 0in /  0.0mm 246 W/m2
18:51 67.8 °F /  19.9 °C 24.1 °F /  -4.4 °C 30.1in /  1018.3hPa NE 2.9mph /  4.7km/h 6mph /  9.7km/h 19% 0in /  0.0mm 207 W/m2
18:56 68 °F /  20 °C 24.3 °F /  -4.3 °C 30.1in /  1018.3hPa East 6mph /  9.7km/h 7mph /  11.3km/h 19% 0in /  0.0mm 200 W/m2
19:01 67.8 °F /  19.9 °C 22.8 °F /  -5.1 °C 30.1in /  1018.3hPa East 4mph /  6.4km/h 9mph /  14.5km/h 18% 0in /  0.0mm 190 W/m2
19:06 67.6 °F /  19.8 °C 23.9 °F /  -4.5 °C 30.1in /  1018.3hPa ENE 2mph /  3.2km/h 5mph /  8km/h 19% 0in /  0.0mm 137 W/m2
19:11 67.5 °F /  19.7 °C 23.7 °F /  -4.6 °C 30.1in /  1018.3hPa Calm   9mph /  14.5km/h 19% 0in /  0.0mm 130 W/m2
19:16 67.5 °F /  19.7 °C 25 °F /  -3.9 °C 30.1in /  1018.3hPa East 0.9mph /  1.4km/h 4mph /  6.4km/h 20% 0in /  0.0mm 107 W/m2
19:21 67.3 °F /  19.6 °C 23.5 °F /  -4.7 °C 30.1in /  1018.3hPa East 2mph /  3.2km/h 7mph /  11.3km/h 19% 0in /  0.0mm 93 W/m2
19:26 66.9 °F /  19.4 °C 24.6 °F /  -4.1 °C 30.1in /  1018.3hPa NE 2mph /  3.2km/h 4mph /  6.4km/h 20% 0in /  0.0mm 81 W/m2
19:31 66.6 °F /  19.2 °C 25.3 °F /  -3.7 °C 30.1in /  1018.3hPa NE 0.9mph /  1.4km/h 3mph /  4.8km/h 21% 0in /  0.0mm 93 W/m2
19:36 66.4 °F /  19.1 °C 30.4 °F /  -0.9 °C 30.1in /  1018.3hPa Calm   2mph /  3.2km/h 26% 0in /  0.0mm 76 W/m2
19:41 65.8 °F /  18.8 °C 30.9 °F /  -0.6 °C 30.1in /  1018.3hPa SE 0.9mph /  1.4km/h 2mph /  3.2km/h 27% 0in /  0.0mm 65 W/m2
19:46 65.1 °F /  18.4 °C 32 °F /  0 °C 30.1in /  1018.3hPa SSE 0.9mph /  1.4km/h 2mph /  3.2km/h 29% 0in /  0.0mm 58 W/m2
19:51 64.9 °F /  18.3 °C 32.7 °F /  0.4 °C 30.1in /  1018.3hPa Calm   1mph /  1.6km/h 30% 0in /  0.0mm 44 W/m2
19:57 64.6 °F /  18.1 °C 34 °F /  1.1 °C 30.1in /  1018.3hPa SSE 0.9mph /  1.4km/h 2mph /  3.2km/h 32% 0in /  0.0mm 30 W/m2
20:02 64 °F /  17.8 °C 33.6 °F /  0.9 °C 30.1in /  1018.3hPa SSE 0.9mph /  1.4km/h 1mph /  1.6km/h 32% 0in /  0.0mm 23 W/m2
20:07 63.1 °F /  17.3 °C 33.6 °F /  0.9 °C 30.1in /  1018.3hPa SSE 0.9mph /  1.4km/h 1mph /  1.6km/h 33% 0in /  0.0mm 19 W/m2
20:12 62.2 °F /  16.8 °C 32.7 °F /  0.4 °C 30.1in /  1018.3hPa SSE 0.9mph /  1.4km/h 2mph /  3.2km/h 33% 0in /  0.0mm 18 W/m2
20:17 61.2 °F /  16.2 °C 32.5 °F /  0.3 °C 30.1in /  1018.3hPa SSE 0.9mph /  1.4km/h 1mph /  1.6km/h 34% 0in /  0.0mm 12 W/m2
20:22 60.3 °F /  15.7 °C 32.5 °F /  0.3 °C 30.1in /  1018.3hPa SSE 0.9mph /  1.4km/h 2mph /  3.2km/h 35% 0in /  0.0mm 9 W/m2
20:27 59.4 °F /  15.2 °C 32.4 °F /  0.2 °C 30.1in /  1018.3hPa SSE 0.9mph /  1.4km/h 2mph /  3.2km/h 36% 0in /  0.0mm 5 W/m2
20:32 58.5 °F /  14.7 °C 31.6 °F /  -0.2 °C 30.1in /  1018.3hPa SSE 0.9mph /  1.4km/h 2mph /  3.2km/h 36% 0in /  0.0mm 5 W/m2
20:37 57.7 °F /  14.3 °C 31.6 °F /  -0.2 °C 30.1in /  1018.3hPa SSE 0.9mph /  1.4km/h 2mph /  3.2km/h 37% 0in /  0.0mm 0 W/m2
20:42 57 °F /  13.9 °C 31.6 °F /  -0.2 °C 30.1in /  1018.3hPa SSE 2mph /  3.2km/h 2mph /  3.2km/h 38% 0in /  0.0mm 0 W/m2
20:47 56.5 °F /  13.6 °C 31.1 °F /  -0.5 °C 30.1in /  1018.3hPa SSE 2mph /  3.2km/h 2mph /  3.2km/h 38% 0in /  0.0mm 0 W/m2
20:52 55.8 °F /  13.2 °C 31.1 °F /  -0.5 °C 30.1in /  1018.3hPa SSE 0.9mph /  1.4km/h 2mph /  3.2km/h 39% 0in /  0.0mm 0 W/m2
20:57 55.2 °F /  12.9 °C 31.3 °F /  -0.4 °C 30.1in /  1018.3hPa SSE 0.9mph /  1.4km/h 1mph /  1.6km/h 40% 0in /  0.0mm 0 W/m2
21:02 54.7 °F /  12.6 °C 31.5 °F /  -0.3 °C 30.1in /  1018.6hPa SSE 0.9mph /  1.4km/h 2mph /  3.2km/h 41% 0in /  0.0mm 0 W/m2
21:07 54.3 °F /  12.4 °C 31.6 °F /  -0.2 °C 30.1in /  1018.6hPa SSE 0.9mph /  1.4km/h 2mph /  3.2km/h 42% 0in /  0.0mm 0 W/m2
21:12 54 °F /  12.2 °C 32 °F /  0 °C 30.1in /  1018.6hPa SSE 0.9mph /  1.4km/h 2mph /  3.2km/h 43% 0in /  0.0mm 0 W/m2
21:17 53.6 °F /  12 °C 31.6 °F /  -0.2 °C 30.1in /  1018.6hPa SSE 0.9mph /  1.4km/h 1mph /  1.6km/h 43% 0in /  0.0mm 0 W/m2
21:22 53.4 °F /  11.9 °C 30.9 °F /  -0.6 °C 30.1in /  1018.6hPa SSE 0.9mph /  1.4km/h 2mph /  3.2km/h 42% 0in /  0.0mm 0 W/m2
21:27 53.4 °F /  11.9 °C 31.5 °F /  -0.3 °C 30.1in /  1018.6hPa Calm   2mph /  3.2km/h 43% 0in /  0.0mm 0 W/m2
21:32 53.2 °F /  11.8 °C 30.7 °F /  -0.7 °C 30.1in /  1018.6hPa Calm   1mph /  1.6km/h 42% 0in /  0.0mm 0 W/m2
21:37 53.2 °F /  11.8 °C 31.8 °F /  -0.1 °C 30.1in /  1018.6hPa SSE 0.9mph /  1.4km/h 2mph /  3.2km/h 44% 0in /  0.0mm 0 W/m2
21:42 53.1 °F /  11.7 °C 31.6 °F /  -0.2 °C 30.1in /  1018.6hPa Calm   1mph /  1.6km/h 44% 0in /  0.0mm 0 W/m2
21:47 52.9 °F /  11.6 °C 32.2 °F /  0.1 °C 30.1in /  1018.6hPa SSE 0.9mph /  1.4km/h 2mph /  3.2km/h 45% 0in /  0.0mm 0 W/m2
21:52 52.7 °F /  11.5 °C 32 °F /  0 °C 30.1in /  1018.6hPa SSE 0.9mph /  1.4km/h 2mph /  3.2km/h 45% 0in /  0.0mm 0 W/m2
21:57 52.5 °F /  11.4 °C 32.4 °F /  0.2 °C 30.1in /  1018.6hPa SSE 0.9mph /  1.4km/h 1mph /  1.6km/h 46% 0in /  0.0mm 0 W/m2
22:02 52.3 °F /  11.3 °C 32.7 °F /  0.4 °C 30.1in /  1018.6hPa SSE 0.9mph /  1.4km/h 2mph /  3.2km/h 47% 0in /  0.0mm 0 W/m2
22:07 52.2 °F /  11.2 °C 32.5 °F /  0.3 °C 30.1in /  1018.6hPa Calm   1mph /  1.6km/h 47% 0in /  0.0mm 0 W/m2
22:12 52 °F /  11.1 °C 32.9 °F /  0.5 °C 30.1in /  1019.0hPa Calm   2mph /  3.2km/h 48% 0in /  0.0mm 0 W/m2
22:17 51.6 °F /  10.9 °C 33.1 °F /  0.6 °C 30.1in /  1018.6hPa SSE 0.9mph /  1.4km/h 1mph /  1.6km/h 49% 0in /  0.0mm 0 W/m2
22:22 51.3 °F /  10.7 °C 32.7 °F /  0.4 °C 30.1in /  1018.6hPa Calm   1mph /  1.6km/h 49% 0in /  0.0mm 0 W/m2
22:27 50.9 °F /  10.5 °C 32.9 °F /  0.5 °C 30.1in /  1019.0hPa SSE 0.9mph /  1.4km/h 2mph /  3.2km/h 50% 0in /  0.0mm 0 W/m2
22:32 50.5 °F /  10.3 °C 32 °F /  0 °C 30.1in /  1019.0hPa Calm   2mph /  3.2km/h 49% 0in /  0.0mm 0 W/m2
22:37 50.4 °F /  10.2 °C 32.9 °F /  0.5 °C 30.1in /  1018.6hPa SSE 0.9mph /  1.4km/h 2mph /  3.2km/h 51% 0in /  0.0mm 0 W/m2
22:42 50.2 °F /  10.1 °C 33.3 °F /  0.7 °C 30.1in /  1018.6hPa SSE 2mph /  3.2km/h 2mph /  3.2km/h 52% 0in /  0.0mm 0 W/m2
22:47 49.8 °F /  9.9 °C 32.9 °F /  0.5 °C 30.1in /  1019.0hPa SSE 2mph /  3.2km/h 2mph /  3.2km/h 52% 0in /  0.0mm 0 W/m2
22:52 49.6 °F /  9.8 °C 33.3 °F /  0.7 °C 30.1in /  1019.0hPa Calm   2mph /  3.2km/h 53% 0in /  0.0mm 0 W/m2
22:57 49.5 °F /  9.7 °C 33.1 °F /  0.6 °C 30.1in /  1019.0hPa SSE 0.9mph /  1.4km/h 2mph /  3.2km/h 53% 0in /  0.0mm 0 W/m2
23:02 49.3 °F /  9.6 °C 32.9 °F /  0.5 °C 30.1in /  1019.0hPa SSE 0.9mph /  1.4km/h 2mph /  3.2km/h 53% 0in /  0.0mm 0 W/m2
23:07 49.1 °F /  9.5 °C 32.7 °F /  0.4 °C 30.1in /  1019.0hPa Calm     53% 0in /  0.0mm 0 W/m2
23:12 48.9 °F /  9.4 °C 33.1 °F /  0.6 °C 30.1in /  1019.0hPa Calm   2mph /  3.2km/h 54% 0in /  0.0mm 0 W/m2
23:17 48.7 °F /  9.3 °C 32.9 °F /  0.5 °C 30.1in /  1019.0hPa Calm     54% 0in /  0.0mm 0 W/m2
Juneau County Weather
Compliments of Weather Underground - 2 mb